createdAt,value
2017-08-07T00:00:42.991Z,13.30
2017-08-07T00:03:10.447Z,13.40
2017-08-07T00:05:37.884Z,13.30
2017-08-07T00:08:05.342Z,13.20
2017-08-07T00:10:32.783Z,13.30
2017-08-07T00:13:00.240Z,13.30
2017-08-07T00:15:27.682Z,13.40
2017-08-07T00:17:55.136Z,13.30
2017-08-07T00:20:23.344Z,13.30
2017-08-07T00:22:50.794Z,13.30
2017-08-07T00:25:18.250Z,13.50
2017-08-07T00:27:45.707Z,13.60
2017-08-07T00:30:13.150Z,13.60
2017-08-07T00:32:40.590Z,13.60
2017-08-07T00:35:08.031Z,13.70
2017-08-07T00:37:35.471Z,13.70
2017-08-07T00:40:02.923Z,13.40
2017-08-07T00:42:30.371Z,13.50
2017-08-07T00:44:57.810Z,13.40
2017-08-07T00:47:25.259Z,13.40
2017-08-07T00:49:52.734Z,13.40
2017-08-07T00:52:20.170Z,13.40
2017-08-07T00:54:47.623Z,13.40
2017-08-07T00:57:15.063Z,13.30
2017-08-07T00:59:42.536Z,13.30
2017-08-07T01:02:09.975Z,13.20
2017-08-07T01:04:37.408Z,13.10
2017-08-07T01:07:05.622Z,13.20
2017-08-07T01:09:33.063Z,13.10
2017-08-07T01:12:00.506Z,13.30
2017-08-07T01:14:27.948Z,13.20
2017-08-07T01:16:56.163Z,13.10
2017-08-07T01:19:23.659Z,13.10
2017-08-07T01:21:51.104Z,13.30
2017-08-07T01:24:18.547Z,13.20
2017-08-07T01:26:45.999Z,13.10
2017-08-07T01:29:13.427Z,13.00
2017-08-07T01:31:40.907Z,12.90
2017-08-07T01:34:08.352Z,12.90
2017-08-07T01:36:35.774Z,12.90
2017-08-07T01:39:03.220Z,12.70
2017-08-07T01:41:31.427Z,12.70
2017-08-07T01:43:58.872Z,12.70
2017-08-07T01:46:26.315Z,12.70
2017-08-07T01:48:54.530Z,12.90
2017-08-07T01:51:21.987Z,12.90
2017-08-07T01:53:49.443Z,13.00
2017-08-07T01:56:16.878Z,13.00
2017-08-07T01:58:44.338Z,12.90
2017-08-07T02:01:11.780Z,12.90
2017-08-07T02:03:39.219Z,12.80
2017-08-07T02:06:07.433Z,12.90
2017-08-07T02:08:34.866Z,12.90
2017-08-07T02:11:02.307Z,12.80
2017-08-07T02:13:30.528Z,12.80
2017-08-07T02:15:57.983Z,12.80
2017-08-07T02:18:25.422Z,12.70
2017-08-07T02:20:52.870Z,12.60
2017-08-07T02:23:20.310Z,12.60
2017-08-07T02:25:48.524Z,12.60
2017-08-07T02:28:15.979Z,12.60
2017-08-07T02:30:43.422Z,12.60
2017-08-07T02:33:10.862Z,12.60
2017-08-07T02:35:38.298Z,12.70
2017-08-07T02:38:06.523Z,12.50
2017-08-07T02:40:33.982Z,12.50
2017-08-07T02:43:01.437Z,12.50
2017-08-07T02:45:28.882Z,12.70
2017-08-07T02:47:56.335Z,12.50
2017-08-07T02:50:23.781Z,12.40
2017-08-07T02:52:51.233Z,12.40
2017-08-07T02:55:18.675Z,12.40
2017-08-07T02:57:46.891Z,12.40
2017-08-07T03:00:14.348Z,12.40
2017-08-07T03:02:41.783Z,12.40
2017-08-07T03:05:09.240Z,12.50
2017-08-07T03:07:36.683Z,12.30
2017-08-07T03:10:05.707Z,12.20
2017-08-07T03:12:33.162Z,12.10
2017-08-07T03:15:00.616Z,12.30
2017-08-07T03:17:28.047Z,12.30
2017-08-07T03:19:55.495Z,12.20
2017-08-07T03:22:23.707Z,12.30
2017-08-07T03:24:51.163Z,12.30
2017-08-07T03:27:18.611Z,12.30
2017-08-07T03:29:46.051Z,12.40
2017-08-07T03:32:13.497Z,12.30
2017-08-07T03:34:40.950Z,12.30
2017-08-07T03:37:09.171Z,12.50
2017-08-07T03:39:36.615Z,12.50
2017-08-07T03:42:04.081Z,12.50
2017-08-07T03:44:31.527Z,12.50
2017-08-07T03:46:58.987Z,12.50
2017-08-07T03:49:26.422Z,12.60
2017-08-07T03:51:53.872Z,12.50
2017-08-07T03:54:21.319Z,12.40
2017-08-07T03:56:49.527Z,12.20
2017-08-07T03:59:16.983Z,12.20
2017-08-07T04:01:44.435Z,12.10
2017-08-07T04:04:11.876Z,12.20
2017-08-07T04:06:39.314Z,12.10
2017-08-07T04:09:07.524Z,12.00
2017-08-07T04:11:34.967Z,12.00
2017-08-07T04:14:02.426Z,12.10
2017-08-07T04:16:29.859Z,12.10
2017-08-07T04:18:58.131Z,12.20
2017-08-07T04:21:26.344Z,12.20
2017-08-07T04:23:53.793Z,12.20
2017-08-07T04:26:21.232Z,12.20
2017-08-07T04:28:48.671Z,12.20
2017-08-07T04:31:16.888Z,12.10
2017-08-07T04:33:44.323Z,12.10
2017-08-07T04:36:11.783Z,12.10
2017-08-07T04:38:39.219Z,12.20
2017-08-07T04:41:06.670Z,12.30
2017-08-07T04:43:34.882Z,12.30
2017-08-07T04:46:02.339Z,12.30
2017-08-07T04:48:29.778Z,12.30
2017-08-07T04:50:57.234Z,12.40
2017-08-07T04:53:24.682Z,12.40
2017-08-07T04:55:52.123Z,12.40
2017-08-07T04:58:19.572Z,12.60
2017-08-07T05:00:47.006Z,12.60
2017-08-07T05:03:14.456Z,12.60
2017-08-07T05:05:41.903Z,12.50
2017-08-07T05:08:09.352Z,12.60
2017-08-07T05:10:37.192Z,12.80
2017-08-07T05:13:04.636Z,12.80
2017-08-07T05:15:32.080Z,12.80
2017-08-07T05:18:00.303Z,13.00
2017-08-07T05:20:27.751Z,13.00
2017-08-07T05:22:55.207Z,13.10
2017-08-07T05:25:22.671Z,13.20
2017-08-07T05:27:50.104Z,13.30
2017-08-07T05:30:17.555Z,13.30
2017-08-07T05:32:45.008Z,13.50
2017-08-07T05:35:12.459Z,13.50
2017-08-07T05:37:39.901Z,13.80
2017-08-07T05:40:08.119Z,15.40
2017-08-07T05:42:35.570Z,15.30
2017-08-07T05:45:03.020Z,16.70
2017-08-07T05:47:30.466Z,18.10
2017-08-07T05:49:57.916Z,18.90
2017-08-07T05:52:25.363Z,19.80
2017-08-07T05:54:52.807Z,21.20
2017-08-07T05:57:21.030Z,23.30
2017-08-07T05:59:48.487Z,23.30
2017-08-07T06:02:15.948Z,24.00
2017-08-07T06:04:43.396Z,24.40
2017-08-07T06:07:10.839Z,25.40
2017-08-07T06:09:38.289Z,26.10
2017-08-07T06:12:05.767Z,27.00
2017-08-07T06:14:33.219Z,27.60
2017-08-07T06:17:00.655Z,28.10
2017-08-07T06:19:28.096Z,28.70
2017-08-07T06:21:56.311Z,28.60
2017-08-07T06:24:23.770Z,28.60
2017-08-07T06:26:51.227Z,29.10
2017-08-07T06:29:18.724Z,28.70
2017-08-07T06:31:46.163Z,29.20
2017-08-07T06:34:13.619Z,29.60
2017-08-07T06:36:41.087Z,30.20
2017-08-07T06:39:08.531Z,29.60
2017-08-07T06:41:35.977Z,29.70
2017-08-07T06:44:03.454Z,29.80
2017-08-07T06:46:30.895Z,30.40
2017-08-07T06:48:58.344Z,30.60
2017-08-07T06:51:25.790Z,25.60
2017-08-07T06:53:53.243Z,24.60
2017-08-07T06:56:20.699Z,25.80
2017-08-07T06:58:48.185Z,27.40
2017-08-07T07:01:15.640Z,28.10
2017-08-07T07:03:43.070Z,27.10
2017-08-07T07:06:10.523Z,27.50
2017-08-07T07:08:37.955Z,27.80
2017-08-07T07:11:05.402Z,28.60
2017-08-07T07:13:32.844Z,28.30
2017-08-07T07:16:01.066Z,28.90
2017-08-07T07:18:28.523Z,28.90
2017-08-07T07:20:55.983Z,29.50
2017-08-07T07:23:23.437Z,29.20
2017-08-07T07:25:50.879Z,28.80
2017-08-07T07:28:18.326Z,28.70
2017-08-07T07:30:45.778Z,27.90
2017-08-07T07:33:13.227Z,28.40
2017-08-07T07:35:40.675Z,28.00
2017-08-07T07:38:08.892Z,27.40
2017-08-07T07:40:36.348Z,27.30
2017-08-07T07:43:03.803Z,27.00
2017-08-07T07:45:31.257Z,26.80
2017-08-07T07:47:58.690Z,26.70
2017-08-07T07:50:26.136Z,26.80
2017-08-07T07:52:54.371Z,26.70
2017-08-07T07:55:21.815Z,26.70
2017-08-07T07:57:49.264Z,26.40
2017-08-07T08:00:16.715Z,26.20
2017-08-07T08:02:44.171Z,26.00
2017-08-07T08:05:11.650Z,25.80
2017-08-07T08:07:39.087Z,25.70
2017-08-07T08:10:06.541Z,25.40
2017-08-07T08:12:33.985Z,25.30
2017-08-07T08:15:01.435Z,25.20
2017-08-07T08:17:28.871Z,25.10
2017-08-07T08:19:57.103Z,24.90
2017-08-07T08:22:24.575Z,24.90
2017-08-07T08:24:52.098Z,24.80
2017-08-07T08:27:19.540Z,24.80
2017-08-07T08:29:47.013Z,24.70
2017-08-07T08:32:14.466Z,25.10
2017-08-07T08:34:41.919Z,25.60
2017-08-07T08:37:09.379Z,25.70
2017-08-07T08:39:36.837Z,25.90
2017-08-07T08:42:04.291Z,26.20
2017-08-07T08:44:31.747Z,26.30
2017-08-07T08:46:59.209Z,27.10
2017-08-07T08:49:26.663Z,27.30
2017-08-07T08:51:54.112Z,26.50
2017-08-07T08:54:21.564Z,27.50
2017-08-07T08:56:49.019Z,28.80
2017-08-07T08:59:16.459Z,28.10
2017-08-07T09:01:43.900Z,28.30
2017-08-07T09:04:12.125Z,28.10
2017-08-07T09:06:39.567Z,28.10
2017-08-07T09:09:07.023Z,28.00
2017-08-07T09:11:34.467Z,28.80
2017-08-07T09:14:01.916Z,28.80
2017-08-07T09:16:29.354Z,28.90
2017-08-07T09:18:57.567Z,26.40
2017-08-07T09:21:25.024Z,26.30
2017-08-07T09:23:52.478Z,25.90
2017-08-07T09:26:19.923Z,26.20
2017-08-07T09:28:47.376Z,27.60
2017-08-07T09:31:14.820Z,28.10
2017-08-07T09:33:42.283Z,28.40
2017-08-07T09:36:09.718Z,27.10
2017-08-07T09:38:37.932Z,28.20
2017-08-07T09:41:05.391Z,28.20
2017-08-07T09:43:32.832Z,28.10
2017-08-07T09:46:00.275Z,27.00
2017-08-07T09:48:27.720Z,27.80
2017-08-07T09:50:55.931Z,27.60
2017-08-07T09:53:23.376Z,27.60
2017-08-07T09:55:50.815Z,27.90
2017-08-07T09:58:18.255Z,27.40
2017-08-07T10:00:46.476Z,26.70
2017-08-07T10:03:13.916Z,26.70
2017-08-07T10:05:41.363Z,27.20
2017-08-07T10:08:08.808Z,28.30
2017-08-07T10:10:37.028Z,29.00
2017-08-07T10:13:04.471Z,29.00
2017-08-07T10:15:31.910Z,29.30
2017-08-07T10:17:59.374Z,29.50
2017-08-07T10:20:26.827Z,29.70
2017-08-07T10:22:54.279Z,29.70
2017-08-07T10:25:21.727Z,30.10
2017-08-07T10:27:49.180Z,29.90
2017-08-07T10:30:16.622Z,29.60
2017-08-07T10:32:44.839Z,30.10
2017-08-07T10:35:12.277Z,30.10
2017-08-07T10:37:39.722Z,29.10
2017-08-07T10:40:07.167Z,27.80
2017-08-07T10:42:35.379Z,29.20
2017-08-07T10:45:02.835Z,29.20
2017-08-07T10:47:30.302Z,29.60
2017-08-07T10:49:57.748Z,30.20
2017-08-07T10:52:25.175Z,30.00
2017-08-07T10:54:52.619Z,30.40
2017-08-07T10:57:20.835Z,30.20
2017-08-07T10:59:48.295Z,30.10
2017-08-07T11:02:15.735Z,29.70
2017-08-07T11:04:43.191Z,29.90
2017-08-07T11:07:10.640Z,30.00
2017-08-07T11:09:38.085Z,29.90
2017-08-07T11:12:06.292Z,29.10
2017-08-07T11:14:33.747Z,29.10
2017-08-07T11:17:01.204Z,29.70
2017-08-07T11:19:28.659Z,29.40
2017-08-07T11:21:56.108Z,29.40
2017-08-07T11:24:23.536Z,29.70
2017-08-07T11:26:51.748Z,30.30
2017-08-07T11:29:19.198Z,30.20
2017-08-07T11:31:46.655Z,29.30
2017-08-07T11:34:14.099Z,29.30
2017-08-07T11:36:41.547Z,29.10
2017-08-07T11:39:09.027Z,29.10
2017-08-07T11:41:36.487Z,29.30
2017-08-07T11:44:03.920Z,29.20
2017-08-07T11:46:31.426Z,29.50
2017-08-07T11:48:58.871Z,29.60
2017-08-07T11:51:26.331Z,29.50
2017-08-07T11:53:53.787Z,29.40
2017-08-07T11:56:21.243Z,29.50
2017-08-07T11:58:48.691Z,29.70
2017-08-07T12:01:16.144Z,29.70
2017-08-07T12:03:43.598Z,29.90
2017-08-07T12:06:11.046Z,28.40
2017-08-07T12:08:38.507Z,29.00
2017-08-07T12:11:05.944Z,29.60
2017-08-07T12:13:33.391Z,29.90
2017-08-07T12:16:00.831Z,29.90
2017-08-07T12:18:29.048Z,29.90
2017-08-07T12:20:56.503Z,29.90
2017-08-07T12:23:23.961Z,27.50
2017-08-07T12:25:51.408Z,27.50
2017-08-07T12:28:18.858Z,28.40
2017-08-07T12:30:46.296Z,29.10
2017-08-07T12:33:14.514Z,29.40
2017-08-07T12:35:41.966Z,29.50
2017-08-07T12:38:09.405Z,29.40
2017-08-07T12:40:36.851Z,29.40
2017-08-07T12:43:04.294Z,29.40
2017-08-07T12:45:32.511Z,29.40
2017-08-07T12:47:59.960Z,29.40
2017-08-07T12:50:27.419Z,29.00
2017-08-07T12:52:54.875Z,29.20
2017-08-07T12:55:22.351Z,29.10
2017-08-07T12:57:49.819Z,29.20
2017-08-07T13:00:17.281Z,28.90
2017-08-07T13:02:44.720Z,28.80
2017-08-07T13:05:12.176Z,28.40
2017-08-07T13:07:39.636Z,28.90
2017-08-07T13:10:07.094Z,28.90
2017-08-07T13:12:34.548Z,28.70
2017-08-07T13:15:01.991Z,28.10
2017-08-07T13:17:29.474Z,28.20
2017-08-07T13:19:56.960Z,28.40
2017-08-07T13:22:24.420Z,28.50
2017-08-07T13:24:51.859Z,28.80
2017-08-07T13:27:20.087Z,28.60
2017-08-07T13:29:47.545Z,28.50
2017-08-07T13:32:14.995Z,28.80
2017-08-07T13:34:42.448Z,28.80
2017-08-07T13:37:09.911Z,28.60
2017-08-07T13:39:37.367Z,28.60
2017-08-07T13:42:04.817Z,28.60
2017-08-07T13:44:32.257Z,28.60
2017-08-07T13:46:59.697Z,28.30
2017-08-07T13:49:27.148Z,28.30
2017-08-07T13:51:55.383Z,28.20
2017-08-07T13:54:22.830Z,28.20
2017-08-07T13:56:50.272Z,28.30
2017-08-07T13:59:17.752Z,28.30
2017-08-07T14:01:45.206Z,28.50
2017-08-07T14:04:12.661Z,28.40
2017-08-07T14:06:40.123Z,28.20
2017-08-07T14:09:07.568Z,28.00
2017-08-07T14:11:35.029Z,27.80
2017-08-07T14:14:02.470Z,27.70
2017-08-07T14:16:29.927Z,27.70
2017-08-07T14:18:57.387Z,27.60
2017-08-07T14:21:24.837Z,27.70
2017-08-07T14:23:52.278Z,27.50
2017-08-07T14:26:19.724Z,27.70
2017-08-07T14:28:47.170Z,27.70
2017-08-07T14:31:14.636Z,27.60
2017-08-07T14:33:42.080Z,27.40
2017-08-07T14:36:09.520Z,27.40
2017-08-07T14:38:36.979Z,27.50
2017-08-07T14:41:04.435Z,27.20
2017-08-07T14:43:31.891Z,27.40
2017-08-07T14:45:59.332Z,27.30
2017-08-07T14:48:26.791Z,27.20
2017-08-07T14:50:54.232Z,27.10
2017-08-07T14:53:21.688Z,27.10
2017-08-07T14:55:49.147Z,27.10
2017-08-07T14:58:16.603Z,26.90
2017-08-07T15:00:44.059Z,27.10
2017-08-07T15:03:11.503Z,26.90
2017-08-07T15:05:38.951Z,26.90
2017-08-07T15:08:06.404Z,26.70
2017-08-07T15:10:33.860Z,26.80
2017-08-07T15:13:01.314Z,26.90
2017-08-07T15:15:28.771Z,26.90
2017-08-07T15:17:56.233Z,26.90
2017-08-07T15:20:23.687Z,26.90
2017-08-07T15:22:51.137Z,26.90
2017-08-07T15:25:18.591Z,26.90
2017-08-07T15:27:46.480Z,26.80
2017-08-07T15:30:13.931Z,26.90
2017-08-07T15:32:41.391Z,26.70
2017-08-07T15:35:09.847Z,26.80
2017-08-07T15:37:37.295Z,26.70
2017-08-07T15:40:04.737Z,26.20
2017-08-07T15:42:32.960Z,26.20
2017-08-07T15:45:00.396Z,26.20
2017-08-07T15:47:27.845Z,26.30
2017-08-07T15:49:55.287Z,26.50
2017-08-07T15:52:22.739Z,26.60
2017-08-07T15:54:50.953Z,26.60
2017-08-07T15:57:18.407Z,26.60
2017-08-07T15:59:45.851Z,26.50
2017-08-07T16:02:13.295Z,26.40
2017-08-07T16:04:40.739Z,26.50
2017-08-07T16:07:08.956Z,25.90
2017-08-07T16:09:36.394Z,25.80
2017-08-07T16:12:03.863Z,25.70
2017-08-07T16:14:31.307Z,25.80
2017-08-07T16:16:58.812Z,25.90
2017-08-07T16:19:26.271Z,26.10
2017-08-07T16:21:53.723Z,26.10
2017-08-07T16:24:21.183Z,26.10
2017-08-07T16:26:48.626Z,26.00
2017-08-07T16:29:16.070Z,26.10
2017-08-07T16:31:43.515Z,26.20
2017-08-07T16:34:10.971Z,26.10
2017-08-07T16:36:38.420Z,26.10
2017-08-07T16:39:05.867Z,26.10
2017-08-07T16:41:33.309Z,26.20
2017-08-07T16:44:00.758Z,26.10
2017-08-07T16:46:28.967Z,25.90
2017-08-07T16:48:56.429Z,25.90
2017-08-07T16:51:23.879Z,25.70
2017-08-07T16:53:51.347Z,25.60
2017-08-07T16:56:18.794Z,25.60
2017-08-07T16:58:46.247Z,25.70
2017-08-07T17:01:13.704Z,25.60
2017-08-07T17:03:41.164Z,25.70
2017-08-07T17:06:08.643Z,25.60
2017-08-07T17:08:36.078Z,25.70
2017-08-07T17:11:03.536Z,25.60
2017-08-07T17:13:30.974Z,25.60
2017-08-07T17:15:58.431Z,25.70
2017-08-07T17:18:25.876Z,25.70
2017-08-07T17:20:53.319Z,25.70
2017-08-07T17:23:21.531Z,25.50
2017-08-07T17:25:48.988Z,25.50
2017-08-07T17:28:16.442Z,25.50
2017-08-07T17:30:43.899Z,25.60
2017-08-07T17:33:11.348Z,25.40
2017-08-07T17:35:38.774Z,25.60
2017-08-07T17:38:06.228Z,25.40
2017-08-07T17:40:34.444Z,25.30
2017-08-07T17:43:01.899Z,25.30
2017-08-07T17:45:29.334Z,25.30
2017-08-07T17:47:56.785Z,25.30
2017-08-07T17:50:24.227Z,25.20
2017-08-07T17:52:51.675Z,25.20
2017-08-07T17:55:19.115Z,25.10
2017-08-07T17:57:46.583Z,25.10
2017-08-07T18:00:14.808Z,25.00
2017-08-07T18:02:42.263Z,24.90
2017-08-07T18:05:09.719Z,24.80
2017-08-07T18:07:37.162Z,24.80
2017-08-07T18:10:04.606Z,24.80
2017-08-07T18:12:32.048Z,24.80
2017-08-07T18:14:59.495Z,24.70
2017-08-07T18:17:26.944Z,24.70
2017-08-07T18:19:54.391Z,24.70
2017-08-07T18:22:21.834Z,24.60
2017-08-07T18:24:49.304Z,24.50
2017-08-07T18:27:16.747Z,24.40
2017-08-07T18:29:44.192Z,24.30
2017-08-07T18:32:11.642Z,24.20
2017-08-07T18:34:39.093Z,24.30
2017-08-07T18:37:06.550Z,24.20
2017-08-07T18:39:33.991Z,24.20
2017-08-07T18:42:01.447Z,24.10
2017-08-07T18:44:28.892Z,24.10
2017-08-07T18:46:56.340Z,24.00
2017-08-07T18:49:24.549Z,23.90
2017-08-07T18:51:52.003Z,23.90
2017-08-07T18:54:19.448Z,23.80
2017-08-07T18:56:46.888Z,23.70
2017-08-07T18:59:14.339Z,23.60
2017-08-07T19:01:41.775Z,23.50
2017-08-07T19:04:09.987Z,23.40
2017-08-07T19:06:37.427Z,23.40
2017-08-07T19:09:04.867Z,23.20
2017-08-07T19:11:33.086Z,23.10
2017-08-07T19:14:00.547Z,23.00
2017-08-07T19:16:27.983Z,23.10
2017-08-07T19:18:55.423Z,23.10
2017-08-07T19:21:23.631Z,22.90
2017-08-07T19:23:51.091Z,22.90
2017-08-07T19:26:18.548Z,23.00
2017-08-07T19:28:46.002Z,22.90
2017-08-07T19:31:13.455Z,22.80
2017-08-07T19:33:40.896Z,22.80
2017-08-07T19:36:08.348Z,22.70
2017-08-07T19:38:35.788Z,22.70
2017-08-07T19:41:03.999Z,22.50
2017-08-07T19:43:31.440Z,22.50
2017-08-07T19:45:58.886Z,22.50
2017-08-07T19:48:26.327Z,22.20
2017-08-07T19:50:53.770Z,21.50
2017-08-07T19:53:21.230Z,21.10
2017-08-07T19:55:48.667Z,20.80
2017-08-07T19:58:16.116Z,20.80
2017-08-07T20:00:43.569Z,20.60
2017-08-07T20:03:11.015Z,20.60
2017-08-07T20:05:38.466Z,20.50
2017-08-07T20:08:05.921Z,20.20
2017-08-07T20:10:33.372Z,19.90
2017-08-07T20:13:00.830Z,19.50
2017-08-07T20:15:28.267Z,19.30
2017-08-07T20:17:55.742Z,19.30
2017-08-07T20:20:23.196Z,19.20
2017-08-07T20:22:50.645Z,19.00
2017-08-07T20:25:18.096Z,18.90
2017-08-07T20:27:45.549Z,19.10
2017-08-07T20:30:12.990Z,18.90
2017-08-07T20:32:40.439Z,18.80
2017-08-07T20:35:07.899Z,18.60
2017-08-07T20:37:35.343Z,18.30
2017-08-07T20:40:03.566Z,18.40
2017-08-07T20:42:31.003Z,18.30
2017-08-07T20:44:58.474Z,18.20
2017-08-07T20:47:25.907Z,18.20
2017-08-07T20:49:53.352Z,18.20
2017-08-07T20:52:21.587Z,18.40
2017-08-07T20:54:49.044Z,18.40
2017-08-07T20:57:16.498Z,18.30
2017-08-07T20:59:43.944Z,18.10
2017-08-07T21:02:11.391Z,18.20
2017-08-07T21:04:38.843Z,18.20
2017-08-07T21:07:06.299Z,18.10
2017-08-07T21:09:33.739Z,18.00
2017-08-07T21:12:01.185Z,17.70
2017-08-07T21:14:28.624Z,17.60
2017-08-07T21:16:56.847Z,17.80
2017-08-07T21:19:24.298Z,17.80
2017-08-07T21:21:51.795Z,17.70
2017-08-07T21:24:19.249Z,17.80
2017-08-07T21:26:46.687Z,17.80
2017-08-07T21:29:14.138Z,17.60
2017-08-07T21:31:41.580Z,17.60
2017-08-07T21:34:09.027Z,17.50
2017-08-07T21:36:36.463Z,17.50
2017-08-07T21:39:03.919Z,17.50
2017-08-07T21:41:32.138Z,17.60
2017-08-07T21:43:59.591Z,17.50
2017-08-07T21:46:27.048Z,17.60
2017-08-07T21:48:54.487Z,17.60
2017-08-07T21:51:21.930Z,17.50
2017-08-07T21:53:49.366Z,17.40
2017-08-07T21:56:17.591Z,17.40
2017-08-07T21:58:45.051Z,17.40
2017-08-07T22:01:12.505Z,17.40
2017-08-07T22:03:39.962Z,17.20
2017-08-07T22:06:07.418Z,17.10
2017-08-07T22:08:34.873Z,17.20
2017-08-07T22:11:02.333Z,17.10
2017-08-07T22:13:29.782Z,16.90
2017-08-07T22:15:57.234Z,17.00
2017-08-07T22:18:24.693Z,17.00
2017-08-07T22:20:52.120Z,17.00
2017-08-07T22:23:19.808Z,17.00
2017-08-07T22:25:47.247Z,16.90
2017-08-07T22:28:14.716Z,16.80
2017-08-07T22:30:42.161Z,16.80
2017-08-07T22:33:09.599Z,16.70
2017-08-07T22:35:37.816Z,16.70
2017-08-07T22:38:05.255Z,16.60
2017-08-07T22:40:32.703Z,16.60
2017-08-07T22:43:00.143Z,16.70
2017-08-07T22:45:28.355Z,16.60
2017-08-07T22:47:55.795Z,16.60
2017-08-07T22:50:23.267Z,16.60
2017-08-07T22:52:50.723Z,16.50
2017-08-07T22:55:18.169Z,16.40
2017-08-07T22:57:45.634Z,16.40
2017-08-07T23:00:13.075Z,16.30
2017-08-07T23:02:40.525Z,16.30
2017-08-07T23:05:07.963Z,16.20
2017-08-07T23:07:36.179Z,16.10
2017-08-07T23:10:03.629Z,16.10
2017-08-07T23:12:31.094Z,16.10
2017-08-07T23:14:58.541Z,16.10
2017-08-07T23:17:25.976Z,16.10
2017-08-07T23:19:53.419Z,16.20
2017-08-07T23:22:21.632Z,16.20
2017-08-07T23:24:49.092Z,16.20
2017-08-07T23:27:16.550Z,16.20
2017-08-07T23:29:44.004Z,16.20
2017-08-07T23:32:11.457Z,16.10
2017-08-07T23:34:38.909Z,16.00
2017-08-07T23:37:06.331Z,16.00
2017-08-07T23:39:34.559Z,16.00
2017-08-07T23:42:01.999Z,16.00
2017-08-07T23:44:29.455Z,16.20
2017-08-07T23:46:56.919Z,16.10
2017-08-07T23:49:24.371Z,16.00
2017-08-07T23:51:51.824Z,15.90
2017-08-07T23:54:19.264Z,15.90
2017-08-07T23:56:46.710Z,15.90
2017-08-07T23:59:14.916Z,16.00
